Flight Track Log - Related Links

Times and Time Zones

All times are in EDT time to prevent confusion due to time zone crossing. See the N543CM flight status page for this flight to view local times or setup timezone preferences in your user account.


Time Position Orientation Groundspeed Altitude Reporting Facility
EDT Latitude Longitude Course Direction KTS MPH feet Rate Location/Type
Mon 05:38:48 PM 38.3000 -104.4000 57° Northeast 212 244 7,300  Level Denver TRACON
Mon 05:39:03 PM 38.3022 -104.3875 77° East 203 234 7,700 2,026 Climbing Denver Center
Mon 05:40:05 PM 38.3244 -104.3006 72° East 216 249 9,900 2,032 Climbing Denver Center
Mon 05:41:07 PM 38.3442 -104.2125 74° East 241 277 11,900 2,177 Climbing Denver Center
Mon 05:42:09 PM 38.3639 -104.0975 78° East 276 318 14,400 2,371 Climbing Denver Center
Mon 05:43:11 PM 38.3789 -103.9992 79° East 287 330 16,800 2,274 Climbing Denver Center
Mon 05:44:00 PM 38.7188 -103.3790 57° Northeast  Level FlightAware Approximate
Mon 05:44:13 PM 38.4161 -103.9053 63° Northeast 305 351 19,100  Level Denver Center
Mon 05:45:15 PM 38.4761 -103.8006 54° Northeast 327 376 21,600 2,274 Climbing Denver Center
Mon 05:46:17 PM 38.5294 -103.7092 53° Northeast 332 382 23,800 2,129 Climbing Denver Center
Mon 05:47:19 PM 38.5933 -103.5939 55° Northeast 351 404 26,000 2,032 Climbing Denver Center
Mon 05:48:21 PM 38.6508 -103.4953 53° Northeast 359 413 28,000 1,887 Climbing Denver Center
Mon 05:49:23 PM 38.7192 -103.3753 54° Northeast 370 426 29,900 1,597 Climbing Denver Center
Mon 05:50:25 PM 38.7794 -103.2669 54° Northeast 386 444 31,300 1,512 Climbing Denver Center
Mon 05:51:26 PM 38.8525 -103.1389 54° Northeast 397 457 33,000 1,610 Climbing Denver Center
Mon 05:52:28 PM 38.9156 -103.0269 54° Northeast 402 463 34,600 1,645 Climbing Denver Center
Mon 05:53:30 PM 38.9764 -102.9136 55° Northeast 400 460 36,400 1,790 Climbing Denver Center
Mon 05:54:32 PM 39.0472 -102.7894 54° Northeast 386 444 38,300 1,597 Climbing Denver Center
Mon 05:55:34 PM 39.1094 -102.6769 54° Northeast 386 444 39,700 1,210 Climbing Denver Center
Mon 05:56:36 PM 39.1783 -102.5522 55° Northeast 384 442 40,800 629 Climbing Denver Center
Mon 05:57:38 PM 39.2383 -102.4431 55° Northeast 389 448 41,000 97 Climbing Denver Center
Mon 05:58:40 PM 39.3014 -102.3275 55° Northeast 410 472 41,000  Level Denver Center
Mon 05:59:54 PM 39.3767 -102.1889 55° Northeast 426 490 41,000  Level Denver Center
Mon 06:00:56 PM 39.4656 -102.0264 55° Northeast 434 499 41,000  Level Denver Center
Mon 06:01:58 PM 39.5322 -101.9047 55° Northeast 433 498 41,000  Level Denver Center
Mon 06:03:00 PM 39.6094 -101.7608 55° Northeast 436 502 41,000  Level Denver Center
Mon 06:04:02 PM 39.6769 -101.6383 54° Northeast 437 503 41,000  Level Denver Center
Mon 06:05:04 PM 39.7536 -101.4925 56° Northeast 438 504 41,000  Level Denver Center
Mon 06:06:17 PM 39.8194 -101.3692 55° Northeast 436 502 41,000 132 Level Denver Center
Mon 06:07:20 PM 39.9064 -101.2036 56° Northeast 435 501 41,300 576 Climbing Denver Center
Mon 06:08:22 PM 39.9700 -101.0831 55° Northeast 425 489 42,200 732 Climbing Denver Center
Mon 06:09:23 PM 40.0431 -100.9442 55° Northeast 417 480 42,800 390 Climbing Denver Center
Mon 06:10:25 PM 40.1061 -100.8244 55° Northeast 417 480 43,000 97 Climbing Denver Center
Mon 06:11:27 PM 40.1797 -100.6817 56° Northeast 425 489 43,000  Level Denver Center
Mon 06:12:29 PM 40.2433 -100.5594 56° Northeast 426 490 43,000  Level Denver Center
Mon 06:13:31 PM 40.3169 -100.4161 56° Northeast 428 493 43,000  Level Denver Center
Mon 06:14:33 PM 40.3800 -100.2936 56° Northeast 426 490 43,000  Level Denver Center
Mon 06:15:35 PM 40.4539 -100.1503 56° Northeast 427 491 43,000  Level Denver Center
Mon 06:16:37 PM 40.5175 -100.0253 56° Northeast 431 496 43,000  Level Denver Center
Mon 06:17:39 PM 40.5906 -99.8797 57° Northeast 431 496 43,000  Level Denver Center
Mon 06:18:41 PM 40.6475 -99.7700 56° Northeast 424 488 43,000  Level Denver Center
Mon 06:19:43 PM 40.7244 -99.6158 57° Northeast 419 482 43,000  Level Denver Center
Mon 06:20:45 PM 40.7886 -99.4875 57° Northeast 418 481 43,000  Level Denver Center
Mon 06:21:47 PM 40.8539 -99.3581 56° Northeast 423 487 43,000  Level Denver Center
Mon 06:22:49 PM 40.9181 -99.2278 57° Northeast 423 487 43,000  Level Denver Center
Mon 06:23:50 PM 40.9811 -99.0997 57° Northeast 420 483 43,000  Level Denver Center
Mon 06:24:52 PM 41.0531 -98.9544 57° Northeast 422 486 43,000  Level Denver Center
Mon 06:25:54 PM 41.1150 -98.8303 56° Northeast 423 487 43,000  Level Denver Center
Mon 06:26:58 PM 41.1794 -98.6978 57° Northeast 423 487 43,000  Level Minneapolis Center
Mon 06:28:00 PM 41.2444 -98.5656 57° Northeast 425 489 43,000  Level Minneapolis Center
Mon 06:29:01 PM 41.3228 -98.4028 57° Northeast 426 490 43,000  Level Minneapolis Center
Mon 06:30:03 PM 41.3872 -98.2697 57° Northeast 427 491 43,000  Level Minneapolis Center
Mon 06:31:05 PM 41.4514 -98.1356 57° Northeast 428 493 43,000  Level Minneapolis Center
Mon 06:32:07 PM 41.5147 -98.0036 57° Northeast 430 495 43,000  Level Minneapolis Center
Mon 06:33:09 PM 41.5789 -97.8694 57° Northeast 429 494 43,000  Level Minneapolis Center
Mon 06:34:11 PM 41.6422 -97.7342 58° Northeast 429 494 43,000  Level Minneapolis Center
Mon 06:35:12 PM 41.7064 -97.5992 57° Northeast 429 494 43,000  Level Minneapolis Center
Mon 06:36:14 PM 41.7825 -97.4361 58° Northeast 427 491 43,000  Level Minneapolis Center
Mon 06:37:16 PM 41.8436 -97.3039 58° Northeast 424 488 43,000  Level Minneapolis Center
Mon 06:38:18 PM 41.9047 -97.1711 58° Northeast 421 484 43,000  Level Minneapolis Center
Mon 06:39:20 PM 41.9672 -97.0372 58° Northeast 420 483 43,000  Level Minneapolis Center
Mon 06:40:21 PM 42.0294 -96.9028 58° Northeast 421 484 43,000  Level Minneapolis Center
Mon 06:41:23 PM 42.0925 -96.7664 58° Northeast 424 488 43,000  Level Minneapolis Center
Mon 06:42:25 PM 42.1544 -96.6303 58° Northeast 424 488 43,000  Level Minneapolis Center
Mon 06:43:27 PM 42.2183 -96.4903 58° Northeast 430 495 43,000  Level Minneapolis Center
Mon 06:44:29 PM 42.2928 -96.3244 59° Northeast 430 495 43,000  Level Minneapolis Center
Mon 06:45:43 PM 42.3669 -96.1586 59° Northeast 429 494 43,000  Level Minneapolis Center
Mon 06:46:45 PM 42.4300 -96.0192 58° Northeast 431 496 43,000  Level Minneapolis Center
Mon 06:47:47 PM 42.4911 -95.8786 59° Northeast 432 497 43,000  Level Minneapolis Center
Mon 06:49:02 PM 42.5656 -95.7122 59° Northeast 430 495 43,000  Level Minneapolis Center
Mon 06:50:04 PM 42.6269 -95.5714 59° Northeast 433 498 43,000  Level Minneapolis Center
Mon 06:51:06 PM 42.6875 -95.4336 59° Northeast 426 490 43,000  Level Minneapolis Center
Mon 06:52:08 PM 42.7503 -95.2900 59° Northeast 428 493 43,000  Level Minneapolis Center
Mon 06:53:10 PM 42.8239 -95.1225 59° Northeast 431 496 43,000  Level Minneapolis Center
Mon 06:54:12 PM 42.8847 -94.9806 60° Northeast 436 502 43,000  Level Minneapolis Center
Mon 06:55:14 PM 42.9447 -94.8400 60° Northeast 431 496 43,000 -145 Level Minneapolis Center
Mon 06:56:16 PM 43.0053 -94.7011 59° Northeast 428 493 42,700 -823 Descending Minneapolis Center
Mon 06:57:18 PM 43.0664 -94.5572 60° Northeast 435 501 41,300 -1,597 Descending Minneapolis Center
Mon 06:58:20 PM 43.1372 -94.3864 60° Northeast 436 502 39,400 -1,935 Descending Minneapolis Center
Mon 06:59:22 PM 43.2003 -94.2364 60° Northeast 441 507 37,300 -2,226 Descending Minneapolis Center
Mon 07:00:24 PM 43.2614 -94.0892 60° Northeast 445 512 34,800 -2,419 Descending Minneapolis Center
Mon 07:01:26 PM 43.3228 -93.9394 61° Northeast 446 513 32,300 -1,839 Descending Minneapolis Center
Mon 07:02:28 PM 43.3864 -93.7883 60° Northeast 452 520 31,000 -1,935 Descending Minneapolis Center
Mon 07:03:30 PM 43.4478 -93.6364 61° Northeast 455 524 28,300 -2,736 Descending Minneapolis Center
Mon 07:04:33 PM 43.5117 -93.4825 60° Northeast 460 529 25,300 -3,242 Descending Minneapolis Center
Mon 07:05:34 PM 43.5875 -93.3028 60° Northeast 458 527 21,600 -3,707 Descending Minneapolis Center
Mon 07:06:36 PM 43.6436 -93.1606 61° Northeast 437 503 17,700 -3,871 Descending Minneapolis Center
Mon 07:07:38 PM 43.6981 -93.0272 61° Northeast 420 483 13,600 -3,774 Descending Minneapolis Center
Mon 07:08:40 PM 43.7494 -92.8981 61° Northeast 393 452 9,900 -3,097 Descending Minneapolis Center
Mon 07:09:42 PM 43.7997 -92.7736 61° Northeast 352 405 7,200 -2,274 Descending Minneapolis Center
Mon 07:10:44 PM 43.8489 -92.6617 59° Northeast 343 395 5,200 -1,645 Descending Minneapolis Center
Mon 07:11:46 PM 43.9169 -92.5769 42° Northeast 300 345 3,800 -919 Descending Minneapolis Center
Mon 07:12:48 PM 43.9664 -92.5281 35° Northeast 218 251 3,300 -823 Descending Minneapolis Center
Mon 07:13:50 PM 43.9403 -92.4872 132° Southeast 141 162 2,100 -919 Descending Minneapolis Center
Mon 07:14:52 PM 43.9131 -92.4944 191° South 107 123 1,400 -339 Descending Minneapolis Center
Mon 07:15:54 PM 43.8903 -92.5139 212° Southwest 105 121 1,400  Level Minneapolis Center
Mon 07:17:00 PM 43.9000 -92.5000 North  Level FlightAware Approximate

Login

Don't have an account? Register now (free) for customized features, flight alerts, and more!